Time;durP1;ratioP1;P1;durP2;ratioP2;P2;SDS_P1;SDS_P2;PMS_P1;PMS_P2;Temp;Humidity;BMP_temperature;BMP_pressure;BME280_temperature;BME280_humidity;BME280_pressure;Samples;Min_cycle;Max_cycle;Signal;HPM_P1;HPM_P2
2021/12/14 00:02:08;;;;;;;;;;;;;;;20.66;48.31;102260.41;7283579;19;154324;-51
2021/12/14 00:04:37;;;;;;;;;;;;;;;20.65;48.25;102258.72;7281981;19;151702;-52
2021/12/14 00:07:06;;;;;;;;;;;;;;;20.65;48.42;102269.94;7283675;19;152911;-51
2021/12/14 00:09:36;;;;;;;;;;;;;;;20.59;48.39;102273.84;7280154;19;152671;-52
2021/12/14 00:17:09;;;;;;;;;;;;;;;20.56;48.89;102270.75;7278637;19;153320;-52
2021/12/14 00:19:37;;;;;;;;;;;;;;;20.53;48.58;102274.97;7282330;19;152254;-49
2021/12/14 00:22:18;;;;;;;;;;;;;;;20.49;49.06;102276.63;7289844;19;153063;-51
2021/12/14 00:24:45;;;;;;;;;;;;;;;20.46;49.28;102274.38;7278473;19;152402;-52
2021/12/14 00:27:13;;;;;;;;;;;;;;;20.43;49.09;102258.09;7257941;19;153789;-52
2021/12/14 00:29:43;;;;;;;;;;;;;;;20.46;49.07;102249.09;7279889;19;153487;-51
2021/12/14 00:32:14;;;;;;;;;;;;;;;20.40;48.94;102253.00;7281786;19;152583;-51
2021/12/14 00:34:43;;;;;;;;;;;;;;;20.37;49.22;102250.75;7274718;19;153249;-51
2021/12/14 00:37:14;;;;;;;;;;;;;;;20.36;49.56;102249.06;7280102;19;154570;-52
2021/12/14 00:39:42;;;;;;;;;;;;;;;20.41;49.45;102249.94;7282749;19;151993;-52
2021/12/14 00:42:10;;;;;;;;;;;;;;;20.42;49.35;102245.16;7282563;19;152618;-52
2021/12/14 00:44:37;;;;;;;;;;;;;;;20.40;49.20;102250.19;7284509;19;153467;-51
2021/12/14 00:47:05;;;;;;;;;;;;;;;20.38;49.64;102249.66;7281171;19;153722;-52
2021/12/14 00:49:32;;;;;;;;;;;;;;;20.35;49.61;102242.59;7279370;19;154939;-55
2021/12/14 00:52:00;;;;;;;;;;;;;;;20.33;49.58;102249.63;7281644;19;152214;-51
2021/12/14 00:54:27;;;;;;;;;;;;;;;20.30;49.89;102247.38;7283321;19;152750;-51
2021/12/14 00:56:54;;;;;;;;;;;;;;;20.27;49.60;102245.06;7264130;19;153363;-51
2021/12/14 00:59:22;;;;;;;;;;;;;;;20.26;49.75;102263.88;7279880;19;151951;-52
2021/12/14 01:01:53;;;;;;;;;;;;;;;20.25;49.71;102261.38;7281836;19;151972;-52
2021/12/14 01:04:23;;;;;;;;;;;;;;;20.21;49.89;102266.69;7274761;19;154907;-52
2021/12/14 01:06:50;;;;;;;;;;;;;;;20.20;50.21;102253.75;7289531;19;151896;-52
2021/12/14 01:09:22;;;;;;;;;;;;;;;20.18;49.80;102257.94;7278455;19;154654;-51
2021/12/14 01:11:51;;;;;;;;;;;;;;;20.16;50.40;102265.81;7281658;19;152438;-51
2021/12/14 01:14:25;;;;;;;;;;;;;;;20.15;49.99;102267.78;7279728;19;152752;-51
2021/12/14 01:17:06;;;;;;;;;;;;;;;20.12;50.03;102267.47;7279416;19;152203;-52
2021/12/14 01:19:36;;;;;;;;;;;;;;;20.12;50.14;102278.72;7282250;19;151500;-51
2021/12/14 01:27:07;;;;;;;;;;;;;;;20.08;50.60;102280.38;7271798;19;152541;-51
2021/12/14 01:29:34;;;;;;;;;;;;;;;20.05;50.68;102278.09;7275614;19;153277;-52
2021/12/14 01:32:02;;;;;;;;;;;;;;;20.04;50.83;102276.41;7282441;19;151942;-51
2021/12/14 01:34:32;;;;;;;;;;;;;;;20.01;51.10;102283.41;7278166;19;152502;-52
2021/12/14 01:37:04;;;;;;;;;;;;;;;19.97;51.16;102283.13;7274332;19;153755;-51
2021/12/14 01:42:01;;;;;;;;;;;;;;;19.95;51.31;102282.53;7278570;19;152615;-52
2021/12/14 01:44:30;;;;;;;;;;;;;;;19.94;51.31;102277.22;7275995;19;155095;-52
2021/12/14 01:47:00;;;;;;;;;;;;;;;19.92;51.28;102280.28;7279465;19;151687;-53
2021/12/14 01:49:28;;;;;;;;;;;;;;;19.92;51.64;102285.03;7288814;19;153402;-52
2021/12/14 01:51:57;;;;;;;;;;;;;;;19.91;51.80;102284.19;7287388;19;152066;-51
2021/12/14 01:54:27;;;;;;;;;;;;;;;19.88;51.53;102293.16;7286587;19;151970;-51
2021/12/14 01:56:54;;;;;;;;;;;;;;;19.89;51.74;102292.06;7286367;19;153216;-52
2021/12/14 01:59:25;;;;;;;;;;;;;;;19.88;51.55;102290.34;7264805;19;153203;-51
2021/12/14 02:01:57;;;;;;;;;;;;;;;19.88;52.07;102281.94;7284945;19;153427;-52
2021/12/14 02:04:26;;;;;;;;;;;;;;;19.89;51.74;102288.41;7280824;19;155993;-52
2021/12/14 02:06:55;;;;;;;;;;;;;;;19.93;51.83;102295.16;7284543;19;151629;-51
2021/12/14 02:09:24;;;;;;;;;;;;;;;19.92;51.87;102296.25;7285434;19;153273;-51
2021/12/14 02:11:52;;;;;;;;;;;;;;;19.91;52.17;102297.38;7293644;19;153229;-51
2021/12/14 02:14:20;;;;;;;;;;;;;;;19.91;51.91;102314.19;7286503;19;151792;-51
2021/12/14 02:16:48;;;;;;;;;;;;;;;19.89;52.27;102303.28;7285471;19;153412;-51
2021/12/14 02:19:15;;;;;;;;;;;;;;;19.89;52.45;102303.28;7286494;19;152046;-51
2021/12/14 02:21:43;;;;;;;;;;;;;;;19.90;52.10;102304.94;7283292;19;151999;-52
2021/12/14 02:24:10;;;;;;;;;;;;;;;19.89;52.35;102305.22;7283768;19;153351;-52
2021/12/14 02:26:39;;;;;;;;;;;;;;;19.89;52.28;102310.84;7286039;19;152146;-51
2021/12/14 02:29:07;;;;;;;;;;;;;;;19.91;52.15;102301.03;7265804;19;154329;-52
2021/12/14 02:31:36;;;;;;;;;;;;;;;19.88;52.21;102304.38;7286203;19;155501;-51
2021/12/14 02:34:05;;;;;;;;;;;;;;;19.92;52.01;102299.06;7289415;19;151917;-51
2021/12/14 02:36:37;;;;;;;;;;;;;;;19.90;52.18;102302.13;7278553;19;154361;-51
2021/12/14 02:39:10;;;;;;;;;;;;;;;19.89;52.36;102299.63;7285266;19;152170;-51
2021/12/14 02:41:40;;;;;;;;;;;;;;;19.88;52.31;102295.97;7283945;19;152649;-52
2021/12/14 02:44:07;;;;;;;;;;;;;;;19.85;52.61;102296.50;7283689;19;153921;-53
2021/12/14 02:46:36;;;;;;;;;;;;;;;19.89;52.35;102294.00;7283503;19;151685;-51
2021/12/14 02:49:05;;;;;;;;;;;;;;;19.85;52.80;102290.88;7284068;19;154347;-52
2021/12/14 02:51:35;;;;;;;;;;;;;;;19.80;53.06;102293.69;7283693;19;154104;-52
2021/12/14 02:54:04;;;;;;;;;;;;;;;19.78;52.76;102304.31;7284659;19;151591;-51
2021/12/14 02:56:33;;;;;;;;;;;;;;;19.77;53.12;102298.97;7290731;19;151722;-52
2021/12/14 02:59:02;;;;;;;;;;;;;;;19.77;52.70;102302.63;7270853;19;152388;-51
2021/12/14 03:01:30;;;;;;;;;;;;;;;19.77;53.15;102302.63;7279402;19;152099;-51
2021/12/14 03:04:00;;;;;;;;;;;;;;;19.76;53.10;102300.09;7281347;19;153935;-51
2021/12/14 03:06:29;;;;;;;;;;;;;;;19.73;53.13;102292.22;7280880;19;151968;-51
2021/12/14 03:09:08;;;;;;;;;;;;;;;19.73;53.38;102295.84;7284114;19;153113;-51
2021/12/14 03:11:36;;;;;;;;;;;;;;;19.75;53.38;102293.66;7283514;19;154614;-52
2021/12/14 03:14:03;;;;;;;;;;;;;;;19.70;53.34;102299.22;7280802;19;152608;-52
2021/12/14 03:16:32;;;;;;;;;;;;;;;19.67;53.84;102298.91;7282207;19;152092;-51
2021/12/14 03:19:01;;;;;;;;;;;;;;;19.68;53.71;102297.78;7289043;19;153381;-51
2021/12/14 03:21:30;;;;;;;;;;;;;;;19.66;53.80;102297.22;7284550;19;153457;-52
2021/12/14 03:24:01;;;;;;;;;;;;;;;19.64;53.66;102303.09;7280632;19;154331;-51
2021/12/14 03:26:29;;;;;;;;;;;;;;;19.62;53.82;102305.34;7283058;19;152386;-51
2021/12/14 03:28:58;;;;;;;;;;;;;;;19.60;53.59;102312.31;7285054;19;152879;-51
2021/12/14 03:31:28;;;;;;;;;;;;;;;19.59;53.92;102305.84;7259686;19;153702;-51
2021/12/14 03:33:57;;;;;;;;;;;;;;;19.59;53.93;102313.41;7283938;19;151964;-53
2021/12/14 03:36:27;;;;;;;;;;;;;;;19.56;53.80;102316.75;7279229;19;152329;-51
2021/12/14 03:38:57;;;;;;;;;;;;;;;19.54;53.73;102308.59;7284870;19;154176;-52
2021/12/14 03:41:28;;;;;;;;;;;;;;;19.57;53.93;102301.63;7283838;19;152884;-51
2021/12/14 03:43:58;;;;;;;;;;;;;;;19.58;53.69;102300.53;7280130;19;153623;-51
2021/12/14 03:46:27;;;;;;;;;;;;;;;19.56;53.87;102308.34;7281556;19;152083;-52
2021/12/14 03:48:54;;;;;;;;;;;;;;;19.58;53.92;102309.75;7284754;19;153054;-52
2021/12/14 03:51:23;;;;;;;;;;;;;;;19.59;54.05;102307.81;7283835;19;153880;-52
2021/12/14 03:53:50;;;;;;;;;;;;;;;19.57;54.13;102308.09;7283705;19;151744;-52
2021/12/14 03:56:18;;;;;;;;;;;;;;;19.57;54.18;102296.88;7281282;19;154401;-51
2021/12/14 03:58:45;;;;;;;;;;;;;;;19.56;54.28;102294.34;7282856;19;153541;-52
2021/12/14 04:01:15;;;;;;;;;;;;;;;19.56;54.09;102291.53;7270631;19;152341;-51
2021/12/14 04:03:43;;;;;;;;;;;;;;;19.57;54.41;102291.28;7278591;19;153350;-51
2021/12/14 04:06:10;;;;;;;;;;;;;;;19.59;54.42;102296.59;7279251;19;151645;-51
2021/12/14 04:08:37;;;;;;;;;;;;;;;19.57;54.53;102296.03;7283912;19;153161;-52
2021/12/14 04:11:05;;;;;;;;;;;;;;;19.56;54.61;102312.00;7281010;19;152561;-51
2021/12/14 04:13:35;;;;;;;;;;;;;;;19.55;54.29;102313.09;7279460;19;152261;-51
2021/12/14 04:16:02;;;;;;;;;;;;;;;19.52;54.85;102311.69;7280802;19;153224;-51
2021/12/14 04:18:29;;;;;;;;;;;;;;;19.53;54.41;102312.56;7282579;19;153817;-51
2021/12/14 04:20:59;;;;;;;;;;;;;;;19.52;54.63;102316.47;7280264;19;151756;-52
2021/12/14 04:23:29;;;;;;;;;;;;;;;19.50;54.83;102324.28;7287255;19;153244;-53
2021/12/14 04:25:59;;;;;;;;;;;;;;;19.50;54.80;102325.13;7278516;19;152323;-53
2021/12/14 04:28:29;;;;;;;;;;;;;;;19.48;55.01;102323.72;7280447;19;152610;-51
2021/12/14 04:30:56;;;;;;;;;;;;;;;19.46;55.07;102328.72;7268166;19;153935;-51
2021/12/14 04:33:27;;;;;;;;;;;;;;;19.46;55.27;102328.72;7272519;19;153480;-51
2021/12/14 04:35:54;;;;;;;;;;;;;;;19.54;55.23;102331.03;7282268;19;153150;-51
2021/12/14 04:38:27;;;;;;;;;;;;;;;19.49;55.25;102326.25;7276169;19;153379;-51
2021/12/14 04:53:30;;;;;;;;;;;;;;;19.41;55.71;102332.31;7280798;19;152057;-52
2021/12/14 04:55:57;;;;;;;;;;;;;;;19.42;55.64;102331.19;7282265;19;153100;-52
2021/12/14 04:58:27;;;;;;;;;;;;;;;19.39;55.75;102328.09;7277885;19;153104;-51
2021/12/14 05:00:54;;;;;;;;;;;;;;;19.39;55.62;102316.88;7279832;19;152809;-51
2021/12/14 05:03:24;;;;;;;;;;;;;;;19.38;55.72;102329.19;7258499;19;153557;-51
2021/12/14 05:06:00;;;;;;;;;;;;;;;19.38;55.64;102323.59;7280030;19;153989;-51
2021/12/14 05:10:59;;;;;;;;;;;;;;;19.39;55.31;102328.94;7281944;19;154466;-52
2021/12/14 05:13:28;;;;;;;;;;;;;;;19.36;55.57;102323.00;7279343;19;152028;-51
2021/12/14 05:15:56;;;;;;;;;;;;;;;19.43;55.40;102326.44;7280415;19;153278;-51
2021/12/14 05:18:23;;;;;;;;;;;;;;;19.38;55.55;102324.44;7276727;19;153315;-52
2021/12/14 05:20:50;;;;;;;;;;;;;;;19.35;55.34;102332.56;7281829;19;152010;-57
2021/12/14 05:23:19;;;;;;;;;;;;;;;19.36;55.33;102332.25;7279138;19;152972;-55
2021/12/14 05:25:46;;;;;;;;;;;;;;;19.39;55.30;102328.94;7283420;19;153601;-51
2021/12/14 05:28:15;;;;;;;;;;;;;;;19.35;55.00;102332.56;7284668;19;152604;-51
2021/12/14 05:30:45;;;;;;;;;;;;;;;19.31;55.30;102331.34;7292418;19;152945;-51
2021/12/14 05:33:16;;;;;;;;;;;;;;;19.28;55.11;102334.72;7271484;19;152232;-51
2021/12/14 05:35:45;;;;;;;;;;;;;;;19.26;55.33;102334.97;7282406;19;154008;-51
2021/12/14 05:38:17;;;;;;;;;;;;;;;19.25;55.04;102335.25;7283234;19;154383;-51
2021/12/14 05:43:16;;;;;;;;;;;;;;;19.38;55.24;102329.19;7284596;19;153290;-52
2021/12/14 05:45:45;;;;;;;;;;;;;;;19.43;55.19;102326.44;7282019;19;152555;-52
2021/12/14 05:48:17;;;;;;;;;;;;;;;19.46;55.56;102331.53;7286467;19;152023;-52
2021/12/14 05:50:46;;;;;;;;;;;;;;;19.51;55.77;102325.97;7291006;19;152624;-51
2021/12/14 05:53:19;;;;;;;;;;;;;;;19.56;55.41;102327.97;7285936;19;152580;-50
2021/12/14 05:55:47;;;;;;;;;;;;;;;19.61;55.80;102331.66;7285223;19;153004;-51
2021/12/14 05:58:16;;;;;;;;;;;;;;;19.67;55.74;102330.56;7285957;19;153293;-51
2021/12/14 06:00:45;;;;;;;;;;;;;;;19.72;55.65;102336.22;7287213;19;151855;-51
2021/12/14 06:03:15;;;;;;;;;;;;;;;19.82;55.96;102329.84;7268301;19;153866;-51
2021/12/14 06:05:43;;;;;;;;;;;;;;;19.89;55.76;102334.13;7280863;19;152280;-51
2021/12/14 06:08:16;;;;;;;;;;;;;;;19.97;55.60;102330.81;7284719;19;152191;-52
2021/12/14 06:10:43;;;;;;;;;;;;;;;20.04;55.43;102330.56;7285339;19;153142;-51
2021/12/14 06:13:10;;;;;;;;;;;;;;;20.12;55.70;102337.63;7289804;19;153910;-51
2021/12/14 06:15:37;;;;;;;;;;;;;;;20.18;55.13;102339.31;7286572;19;152564;-52
2021/12/14 06:18:04;;;;;;;;;;;;;;;20.26;54.97;102344.44;7285225;19;153775;-55
2021/12/14 06:20:33;;;;;;;;;;;;;;;20.32;55.01;102344.22;7285013;19;152208;-51
2021/12/14 06:23:00;;;;;;;;;;;;;;;20.40;54.66;102348.44;7283093;19;151934;-51
2021/12/14 06:25:28;;;;;;;;;;;;;;;20.47;54.38;102346.25;7286639;19;153251;-51
2021/12/14 06:27:59;;;;;;;;;;;;;;;20.54;54.71;102346.84;7282863;19;152170;-51
2021/12/14 06:30:28;;;;;;;;;;;;;;;20.61;53.96;102341.81;7283767;19;153438;-51
2021/12/14 06:33:00;;;;;;;;;;;;;;;20.68;54.17;102345.22;7282626;19;153887;-51
2021/12/14 06:35:32;;;;;;;;;;;;;;;20.76;54.27;102350.28;7268542;19;153734;-52
2021/12/14 06:40:33;;;;;;;;;;;;;;;20.89;54.16;102353.72;7279468;19;151895;-51
2021/12/14 06:43:01;;;;;;;;;;;;;;;20.96;53.63;102359.91;7281822;19;153427;-52
2021/12/14 06:45:30;;;;;;;;;;;;;;;21.01;53.49;102359.91;7282032;19;153916;-51
2021/12/14 06:48:03;;;;;;;;;;;;;;;21.08;53.17;102361.34;7284708;19;151786;-52
2021/12/14 06:50:35;;;;;;;;;;;;;;;21.14;53.14;102362.22;7288402;19;153250;-51
2021/12/14 06:53:04;;;;;;;;;;;;;;;21.20;52.75;102367.59;7283633;19;152692;-51
2021/12/14 06:55:32;;;;;;;;;;;;;;;21.27;52.92;102368.16;7287178;19;151557;-52
2021/12/14 06:58:02;;;;;;;;;;;;;;;21.32;52.52;102370.13;7291448;19;153315;-52
2021/12/14 07:00:29;;;;;;;;;;;;;;;21.36;52.79;102365.63;7285275;19;151627;-52
2021/12/14 07:02:57;;;;;;;;;;;;;;;21.42;52.62;102363.66;7283967;19;152655;-51
2021/12/14 07:05:25;;;;;;;;;;;;;;;21.48;52.38;102366.22;7267661;19;154673;-51
2021/12/14 07:07:52;;;;;;;;;;;;;;;21.53;52.24;102365.38;7275943;19;152423;-56
2021/12/14 07:10:20;;;;;;;;;;;;;;;21.58;51.83;102366.19;7284333;19;152034;-51
2021/12/14 07:12:47;;;;;;;;;;;;;;;21.62;52.00;102361.69;7282585;19;154336;-51
2021/12/14 07:15:15;;;;;;;;;;;;;;;21.67;51.96;102360.84;7285106;19;152163;-51
2021/12/14 07:17:46;;;;;;;;;;;;;;;21.74;51.94;102364.25;7284577;19;152438;-52
2021/12/14 07:20:14;;;;;;;;;;;;;;;21.82;52.30;102371.25;7291486;19;153243;-52
2021/12/14 07:22:44;;;;;;;;;;;;;;;21.87;51.94;102386.16;7284120;19;153105;-53
2021/12/14 07:25:12;;;;;;;;;;;;;;;21.48;47.89;102385.06;7282117;19;152364;-52
2021/12/14 07:27:39;;;;;;;;;;;;;;;21.61;48.99;102379.72;7281099;19;151696;-53
2021/12/14 07:30:09;;;;;;;;;;;;;;;21.66;48.47;102378.88;7284744;19;152037;-54
2021/12/14 07:32:38;;;;;;;;;;;;;;;21.70;48.39;102374.38;7281844;19;153452;-53
2021/12/14 07:35:08;;;;;;;;;;;;;;;21.73;48.38;102382.25;7285382;19;152023;-53
2021/12/14 07:37:35;;;;;;;;;;;;;;;21.73;48.63;102388.72;7266573;19;153522;-52
2021/12/14 07:40:02;;;;;;;;;;;;;;;21.79;48.09;102394.34;7280522;19;154035;-53
2021/12/14 07:42:29;;;;;;;;;;;;;;;21.81;48.09;102397.69;7288738;19;152270;-53
2021/12/14 07:44:56;;;;;;;;;;;;;;;21.85;48.46;102407.28;7283009;19;152181;-53
2021/12/14 07:47:23;;;;;;;;;;;;;;;21.84;48.12;102405.59;7278156;19;153052;-52
2021/12/14 07:49:54;;;;;;;;;;;;;;;21.86;47.80;102401.38;7283869;19;153077;-52
2021/12/14 07:52:24;;;;;;;;;;;;;;;21.85;48.05;102402.47;7284301;19;154123;-54
2021/12/14 07:54:55;;;;;;;;;;;;;;;21.87;47.93;102410.66;7283121;19;152096;-54
2021/12/14 07:57:24;;;;;;;;;;;;;;;21.88;47.89;102406.72;7285742;19;153617;-53
2021/12/14 07:59:54;;;;;;;;;;;;;;;21.87;47.62;102416.28;7280889;19;152604;-54
2021/12/14 08:02:21;;;;;;;;;;;;;;;21.87;47.43;102414.31;7291076;19;151996;-53
2021/12/14 08:04:51;;;;;;;;;;;;;;;21.86;47.59;102408.94;7281756;19;155316;-53
2021/12/14 08:07:21;;;;;;;;;;;;;;;21.86;47.44;102409.81;7263326;19;154679;-53
2021/12/14 08:09:50;;;;;;;;;;;;;;;21.86;47.49;102411.78;7279249;19;153347;-54
2021/12/14 08:12:20;;;;;;;;;;;;;;;21.85;47.75;102415.72;7278882;19;153938;-53
2021/12/14 08:14:58;;;;;;;;;;;;;;;21.85;47.28;102412.91;7282749;19;151972;-52
2021/12/14 08:17:24;;;;;;;;;;;;;;;21.84;47.68;102422.47;7285157;19;152548;-53
2021/12/14 08:19:52;;;;;;;;;;;;;;;21.83;47.17;102416.00;7281536;19;153875;-53
2021/12/14 08:22:22;;;;;;;;;;;;;;;21.82;47.24;102405.03;7281613;19;152014;-53
2021/12/14 08:24:49;;;;;;;;;;;;;;;21.86;47.28;102412.63;7289182;19;153600;-52
2021/12/14 08:27:19;;;;;;;;;;;;;;;21.90;47.93;102418.50;7280258;19;151878;-52
2021/12/14 08:29:49;;;;;;;;;;;;;;;21.36;46.73;102424.66;7284246;19;153167;-52
2021/12/14 08:32:20;;;;;;;;;;;;;;;21.58;47.46;102432.84;7282278;19;153672;-52
2021/12/14 08:34:48;;;;;;;;;;;;;;;21.56;46.99;102438.78;7283911;19;151811;-52
2021/12/14 08:37:30;;;;;;;;;;;;;;;21.56;47.43;102429.50;7282030;19;153370;-53
2021/12/14 08:40:02;;;;;;;;;;;;;;;21.55;47.06;102427.78;7283334;19;153803;-52
2021/12/14 08:42:37;;;;;;;;;;;;;;;21.54;47.48;102443.81;7281149;19;152404;-52
2021/12/14 08:45:24;;;;;;;;;;;;;;;21.54;47.18;102440.16;7282591;19;153015;-52
2021/12/14 08:47:54;;;;;;;;;;;;;;;21.52;47.20;102437.66;7281111;19;153365;-52
2021/12/14 08:50:22;;;;;;;;;;;;;;;21.51;47.29;102432.28;7282179;19;153677;-53
2021/12/14 08:52:50;;;;;;;;;;;;;;;21.49;47.51;102441.00;7243097;19;153555;-52
2021/12/14 08:55:18;;;;;;;;;;;;;;;21.46;47.32;102435.09;7277291;19;152163;-53
2021/12/14 08:57:45;;;;;;;;;;;;;;;21.43;47.80;102436.50;7279963;19;152727;-52
2021/12/14 09:00:15;;;;;;;;;;;;;;;21.42;47.44;102443.25;7280763;19;153326;-53
2021/12/14 09:02:42;;;;;;;;;;;;;;;21.40;47.52;102439.84;7281883;19;152019;-51
2021/12/14 09:05:13;;;;;;;;;;;;;;;21.38;47.93;102447.75;7279966;19;152140;-52
2021/12/14 09:07:40;;;;;;;;;;;;;;;21.35;47.53;102439.84;7276759;19;153605;-52
2021/12/14 09:10:10;;;;;;;;;;;;;;;21.32;47.75;102443.22;7289744;19;152321;-53
2021/12/14 09:12:39;;;;;;;;;;;;;;;21.29;47.65;102444.63;7278727;19;154138;-53
2021/12/14 09:15:09;;;;;;;;;;;;;;;21.28;47.66;102444.91;7280770;19;151757;-52
2021/12/14 09:17:36;;;;;;;;;;;;;;;21.26;48.05;102447.97;7280059;19;152982;-53
2021/12/14 09:20:06;;;;;;;;;;;;;;;21.23;48.06;102445.72;7278604;19;153950;-52
2021/12/14 09:22:41;;;;;;;;;;;;;;;21.21;47.85;102447.16;7282390;19;151697;-53
2021/12/14 09:25:13;;;;;;;;;;;;;;;21.19;47.97;102452.19;7279113;19;152561;-53
2021/12/14 09:27:40;;;;;;;;;;;;;;;21.16;48.05;102453.59;7276944;19;153831;-53
2021/12/14 09:30:09;;;;;;;;;;;;;;;21.15;47.93;102451.91;7281957;19;152420;-52
2021/12/14 09:32:39;;;;;;;;;;;;;;;21.12;48.53;102449.59;7286288;19;152130;-53
2021/12/14 09:35:09;;;;;;;;;;;;;;;21.11;48.12;102444.25;7279002;19;152429;-52
2021/12/14 09:37:36;;;;;;;;;;;;;;;21.10;48.39;102442.56;7280667;19;152327;-52
2021/12/14 09:40:07;;;;;;;;;;;;;;;21.09;48.19;102452.13;7281359;19;154218;-53
2021/12/14 09:42:34;;;;;;;;;;;;;;;21.06;48.21;102449.88;7280637;19;152000;-52
2021/12/14 09:45:06;;;;;;;;;;;;;;;21.04;48.35;102464.19;7279293;19;152689;-52
2021/12/14 09:47:33;;;;;;;;;;;;;;;21.01;48.41;102466.69;7278522;19;153248;-53
2021/12/14 09:50:03;;;;;;;;;;;;;;;21.00;48.70;102468.66;7277780;19;152113;-53
2021/12/14 09:52:33;;;;;;;;;;;;;;;20.96;48.75;102464.72;7277822;19;152097;-53
2021/12/14 09:55:01;;;;;;;;;;;;;;;20.93;48.81;102468.09;7280275;19;152369;-52
2021/12/14 09:57:31;;;;;;;;;;;;;;;20.92;48.59;102462.72;7282007;19;152954;-53
2021/12/14 10:00:00;;;;;;;;;;;;;;;20.89;48.94;102466.94;7281600;19;153326;-53
2021/12/14 10:02:27;;;;;;;;;;;;;;;20.88;49.07;102478.44;7281039;19;152085;-52
2021/12/14 10:04:56;;;;;;;;;;;;;;;20.85;49.02;102483.47;7279537;19;151944;-53
2021/12/14 10:07:24;;;;;;;;;;;;;;;20.82;49.06;102480.38;7278214;19;152957;-53
2021/12/14 10:09:52;;;;;;;;;;;;;;;20.79;48.72;102487.41;7280198;19;152385;-52
2021/12/14 10:14:53;;;;;;;;;;;;;;;20.75;49.01;102486.25;7292640;19;153619;-53
2021/12/14 10:17:22;;;;;;;;;;;;;;;20.74;49.06;102483.72;7288198;19;153622;-51
2021/12/14 10:19:50;;;;;;;;;;;;;;;20.72;48.95;102486.78;7285762;19;154434;-52
2021/12/14 10:22:23;;;;;;;;;;;;;;;20.69;48.94;102483.69;7285874;19;151921;-53
2021/12/14 10:24:51;;;;;;;;;;;;;;;20.68;49.24;102496.03;7283805;19;152249;-53
2021/12/14 10:27:19;;;;;;;;;;;;;;;20.63;48.96;102491.22;7285052;19;152293;-53
2021/12/14 10:29:46;;;;;;;;;;;;;;;20.61;49.16;102499.09;7286412;19;151565;-53
2021/12/14 10:32:16;;;;;;;;;;;;;;;20.58;48.92;102494.00;7285344;19;153097;-53
2021/12/14 10:34:46;;;;;;;;;;;;;;;20.59;49.20;102486.41;7284431;19;153807;-52
2021/12/14 10:37:21;;;;;;;;;;;;;;;20.55;49.32;102491.75;7294355;19;152115;-53
2021/12/14 10:44:51;;;;;;;;;;;;;;;20.69;49.13;102503.34;7286186;19;152640;-53
2021/12/14 10:47:20;;;;;;;;;;;;;;;20.69;49.17;102501.38;7282426;19;154045;-52
2021/12/14 10:49:48;;;;;;;;;;;;;;;20.71;48.84;102492.69;7283763;19;152043;-51
2021/12/14 10:52:18;;;;;;;;;;;;;;;20.70;49.07;102494.66;7284544;19;151935;-53
2021/12/14 10:54:47;;;;;;;;;;;;;;;20.72;49.07;102488.75;7284679;19;154024;-52
2021/12/14 10:57:19;;;;;;;;;;;;;;;20.71;48.85;102487.06;7284113;19;152262;-53
2021/12/14 10:59:49;;;;;;;;;;;;;;;20.70;48.85;102491.84;7290125;19;152047;-52
2021/12/14 11:02:20;;;;;;;;;;;;;;;20.71;48.74;102485.13;7284549;19;151878;-52
2021/12/14 11:04:54;;;;;;;;;;;;;;;20.71;48.76;102481.47;7287600;19;152028;-52
2021/12/14 11:07:22;;;;;;;;;;;;;;;20.71;48.70;102485.13;7284696;19;153355;-53
2021/12/14 11:09:53;;;;;;;;;;;;;;;20.70;48.68;102483.41;7285437;19;153843;-53
2021/12/14 11:12:22;;;;;;;;;;;;;;;20.69;49.00;102480.88;7284616;19;152599;-52
2021/12/14 11:14:53;;;;;;;;;;;;;;;20.70;48.85;102485.38;7284067;19;152904;-52
2021/12/14 11:19:54;;;;;;;;;;;;;;;20.67;48.79;102472.72;7283500;19;151949;-53
2021/12/14 11:22:23;;;;;;;;;;;;;;;20.68;48.90;102480.03;7291291;19;153427;-53
2021/12/14 11:24:53;;;;;;;;;;;;;;;20.66;49.01;102482.28;7286339;19;152610;-52
2021/12/14 11:27:23;;;;;;;;;;;;;;;20.65;48.78;102486.19;7281229;19;153944;-53
2021/12/14 11:29:55;;;;;;;;;;;;;;;20.66;48.81;102478.63;7285565;19;152235;-52
2021/12/14 11:32:23;;;;;;;;;;;;;;;20.65;48.82;102477.78;7283639;19;153278;-52
2021/12/14 11:34:50;;;;;;;;;;;;;;;20.65;48.50;102465.69;7282334;19;153319;-52
2021/12/14 11:37:20;;;;;;;;;;;;;;;20.61;48.62;102471.00;7282871;19;151577;-53
2021/12/14 11:39:49;;;;;;;;;;;;;;;20.58;48.61;102477.16;7284292;19;153260;-52
2021/12/14 11:42:19;;;;;;;;;;;;;;;20.55;48.74;102482.47;7283010;19;153786;-52
2021/12/14 11:44:50;;;;;;;;;;;;;;;20.56;48.82;102467.31;7293504;19;152308;-53
2021/12/14 11:49:53;;;;;;;;;;;;;;;20.54;48.72;102477.97;7285758;19;152300;-52
2021/12/14 11:52:24;;;;;;;;;;;;;;;20.52;49.17;102469.81;7285567;19;152661;-52
2021/12/14 11:54:51;;;;;;;;;;;;;;;20.51;48.81;102475.72;7283644;19;151959;-51
2021/12/14 11:57:18;;;;;;;;;;;;;;;20.47;49.06;102481.03;7285475;19;151918;-53
2021/12/14 11:59:45;;;;;;;;;;;;;;;20.44;49.05;102484.38;7285473;19;152640;-52
2021/12/14 12:02:12;;;;;;;;;;;;;;;20.42;49.34;102475.38;7283387;19;152229;-52
2021/12/14 12:04:44;;;;;;;;;;;;;;;20.41;49.38;102479.28;7287885;19;151559;-52
2021/12/14 12:09:53;;;;;;;;;;;;;;;20.41;49.10;102470.88;7280157;19;152138;-52
2021/12/14 12:12:22;;;;;;;;;;;;;;;20.38;49.29;102466.66;7283731;19;151990;-53
2021/12/14 12:14:52;;;;;;;;;;;;;;;20.36;49.46;102468.03;7282597;19;154176;-53
2021/12/14 12:17:22;;;;;;;;;;;;;;;20.33;49.33;102455.38;7283459;19;151888;-51
2021/12/14 12:19:51;;;;;;;;;;;;;;;20.30;49.56;102464.34;7282964;19;152016;-52
2021/12/14 12:22:18;;;;;;;;;;;;;;;20.30;49.20;102466.31;7283600;19;153447;-52
2021/12/14 12:24:48;;;;;;;;;;;;;;;20.29;49.59;102458.97;7284710;19;151720;-52
2021/12/14 12:27:17;;;;;;;;;;;;;;;20.25;49.69;102457.81;7290306;19;153242;-53
2021/12/14 12:29:44;;;;;;;;;;;;;;;20.19;49.44;102450.47;7281334;19;151882;-53
2021/12/14 12:32:20;;;;;;;;;;;;;;;20.18;49.47;102460.00;7281792;19;152924;-52
2021/12/14 12:34:50;;;;;;;;;;;;;;;20.18;49.68;102458.03;7281249;19;152565;-52
2021/12/14 12:37:17;;;;;;;;;;;;;;;20.16;49.84;102462.25;7282054;19;152200;-52
2021/12/14 12:39:47;;;;;;;;;;;;;;;20.14;49.74;102450.44;7283495;19;153810;-53
2021/12/14 12:42:16;;;;;;;;;;;;;;;20.13;49.40;102448.72;7283424;19;153663;-52
2021/12/14 12:44:43;;;;;;;;;;;;;;;20.10;49.78;102447.31;7280326;19;152320;-53
2021/12/14 12:47:13;;;;;;;;;;;;;;;20.09;49.99;102444.78;7282884;19;152081;-53
2021/12/14 12:49:42;;;;;;;;;;;;;;;20.05;49.77;102447.28;7288410;19;153994;-52
2021/12/14 12:52:12;;;;;;;;;;;;;;;20.05;50.06;102443.63;7280969;19;153694;-52
2021/12/14 12:54:42;;;;;;;;;;;;;;;20.05;50.03;102440.81;7282649;19;153780;-52
2021/12/14 12:57:13;;;;;;;;;;;;;;;20.04;49.84;102439.13;7283570;19;152487;-52
2021/12/14 12:59:42;;;;;;;;;;;;;;;20.04;50.04;102439.13;7281291;19;151717;-52
2021/12/14 13:02:12;;;;;;;;;;;;;;;20.03;49.64;102437.47;7282188;19;153832;-51
2021/12/14 13:04:39;;;;;;;;;;;;;;;20.04;50.09;102433.50;7278567;19;152085;-52
2021/12/14 13:07:07;;;;;;;;;;;;;;;20.01;50.08;102423.69;7279523;19;153600;-52
2021/12/14 13:09:54;;;;;;;;;;;;;;;20.01;49.96;102422.84;7277833;19;154310;-52
2021/12/14 13:12:23;;;;;;;;;;;;;;;19.97;49.83;102420.59;7287226;19;152341;-53
2021/12/14 13:14:50;;;;;;;;;;;;;;;19.96;50.06;102424.50;7281660;19;153674;-52
2021/12/14 13:17:18;;;;;;;;;;;;;;;19.94;50.17;102423.09;7283176;19;152121;-52
2021/12/14 13:19:57;;;;;;;;;;;;;;;19.94;50.18;102425.88;7282695;19;152616;-51
2021/12/14 13:22:24;;;;;;;;;;;;;;;19.92;50.05;102419.69;7278860;19;153976;-52
2021/12/14 13:24:51;;;;;;;;;;;;;;;19.90;50.22;102407.88;7282940;19;152298;-51
2021/12/14 13:27:21;;;;;;;;;;;;;;;19.91;49.86;102418.84;7281004;19;152565;-52